Terminal Aerodrome Forecast
Issued by NWS

Current Version | Previous Version | Text Only | Print | Product List | Glossary On
Versions: 1 2 3 4 5 6 7 8 9 10 11 12 13 14 15 16 17 18
000
FTUS46 KLOX 020548
TAFLGB
TAF
KLGB 020548Z 0206/0306 VRB03KT P6SM BKN022
     FM022100 19008KT P6SM SCT250
     FM030500 VRB03KT P6SM BKN020=

USA.gov is the U.S. government's official web portal to all federal, state and local government web resources and services.